Darstellungsparameter: Aktuell verwendete Einstellungen:
Skalierung der Graphiken ... ?
xyx+y,   Skalierungsfaktor:      Skalierung: Modus: x, Faktor: 1
Darstellungszeitraum ... ?
Vom - - bis: - -   Zeitraum: 16.10.2010 - 16.10.2010
Min/Max/Avg-Anzeige ... ?
Zeige MMA aktuell
Zeige MMA Monat
Zeige MMA alles
Zeige --A aktuell
Zeige --A Monat
Zeige --A alles
Keine MMA-Anzeige
MMA:
Average (ber die Originaldaten)
MMA-Basis: 16.10.2010 - 16.10.2010
Quicknavigation für Darstellung... ?
Tage:      1T, 2T, 3T, 5T -1T -2T -3T -5T +1T +2T +3T +5T
Wochen: 1W, 2W, 3W -1W -2W -3W +1W +2W +3W
Monate: 1M, 3M, 6M -1M -3M -6M +1M +3M +6M
Jahre:    1J, 3J, 5J, 10J -1J -3J -5J -10J +1J +3J +5J +10J
Nutze für die Darstellung ... ?
Originaldaten oder Mittelwerte auf ...
Stundenbasis Tagesbasis Wochenbasis
Monatsbasis Jahresbasis      Datenbasis: Original-Daten
Darstellen als:
Statistik (Auto) Statistik J:M      Darstellung:
Zur Graphik,    zurück zur Übersicht aller Sensoren.
 
Tabellarische Datenbersicht: ?
 
Sensor: Nr:Datum:Temp:Abs-Feuchte:Windchill:Wind:
Aussen-T/F 1 16-10-2010 00:04:04 9.1 C 8.16 g/m*3 9.1 C 0 km/h
2 16-10-2010 00:16:04 9 C 8.11 g/m*3 9 C 0 km/h
3 16-10-2010 00:28:04 9 C 8.11 g/m*3 9 C 0 km/h
4 16-10-2010 00:40:04 9 C 8.2 g/m*3 9 C 0 km/h
5 16-10-2010 00:52:04 9 C 8.2 g/m*3 9 C 0 km/h
6 16-10-2010 01:04:04 8.9 C 8.23 g/m*3 8.9 C 0 km/h
7 16-10-2010 01:16:04 8.9 C 8.23 g/m*3 8.9 C 0 km/h
8 16-10-2010 01:28:04 8.8 C 8.18 g/m*3 8.8 C 0 km/h
9 16-10-2010 01:40:04 8.8 C 8.18 g/m*3 8.8 C 0 km/h
10 16-10-2010 01:52:04 8.7 C 8.13 g/m*3 8.7 C 0 km/h
11 16-10-2010 02:04:04 8.7 C 8.13 g/m*3 8.7 C 0 km/h
12 16-10-2010 02:16:05 8.8 C 8.18 g/m*3 8.8 C 0 km/h
13 16-10-2010 02:28:05 8.8 C 8.27 g/m*3 8.8 C 0 km/h
14 16-10-2010 02:40:05 8.8 C 8.27 g/m*3 8.8 C 0 km/h
15 16-10-2010 02:52:05 8.8 C 8.27 g/m*3 8.8 C 0 km/h
16 16-10-2010 03:04:05 8.7 C 8.22 g/m*3 8.7 C 0 km/h
17 16-10-2010 03:16:05 8.7 C 8.22 g/m*3 8.7 C 0 km/h
18 16-10-2010 03:28:05 8.7 C 8.22 g/m*3 8.7 C 0 km/h
19 16-10-2010 03:40:05 8.7 C 8.22 g/m*3 8.7 C 0 km/h
20 16-10-2010 03:52:05 8.6 C 8.16 g/m*3 8.6 C 0 km/h
21 16-10-2010 04:04:05 8.6 C 8.16 g/m*3 8.6 C 0 km/h
22 16-10-2010 04:16:05 8.6 C 8.16 g/m*3 8.6 C 0 km/h
23 16-10-2010 04:28:05 8.5 C 8.11 g/m*3 8.5 C 0 km/h
24 16-10-2010 04:40:05 8.5 C 8.11 g/m*3 8.5 C 0 km/h
25 16-10-2010 04:52:05 8.5 C 8.11 g/m*3 8.5 C 0 km/h
Sensor: Nr:Datum:Temp:Abs-Feuchte:Windchill:Wind:
Aussen-T/F 26 16-10-2010 05:04:05 8.5 C 8.11 g/m*3 8.5 C 0 km/h
27 16-10-2010 05:16:05 8.4 C 8.06 g/m*3 8.4 C 0 km/h
28 16-10-2010 05:28:05 8.3 C 8.01 g/m*3 8.3 C 0 km/h
29 16-10-2010 05:40:05 8.3 C 8.01 g/m*3 8.3 C 0 km/h
30 16-10-2010 05:52:05 8.3 C 8.01 g/m*3 8.3 C 0 km/h
31 16-10-2010 06:04:05 8.3 C 8.01 g/m*3 8.3 C 0 km/h
32 16-10-2010 06:16:05 8.4 C 8.06 g/m*3 8.4 C 0 km/h
33 16-10-2010 06:28:05 8.3 C 8.01 g/m*3 8.3 C 0 km/h
34 16-10-2010 06:40:06 8.3 C 8.01 g/m*3 8.3 C 0 km/h
35 16-10-2010 06:52:06 8.2 C 7.96 g/m*3 8.2 C 0 km/h
36 16-10-2010 07:04:06 8.2 C 7.96 g/m*3 8.2 C 0 km/h
37 16-10-2010 07:16:06 8.2 C 7.96 g/m*3 8.2 C 0 km/h
38 16-10-2010 07:28:06 8.1 C 7.9 g/m*3 8.1 C 0 km/h
39 16-10-2010 07:40:04 8.1 C 7.82 g/m*3 8.1 C 0 km/h
40 16-10-2010 07:52:02 8 C 7.77 g/m*3 8 C 0 km/h
41 16-10-2010 08:04:02 8.1 C 7.82 g/m*3 8.1 C 0 km/h
42 16-10-2010 08:16:01 8.1 C 7.82 g/m*3 8.1 C 0 km/h
43 16-10-2010 08:28:01 8.1 C 7.74 g/m*3 8.1 C 0 km/h
44 16-10-2010 08:40:01 8.1 C 7.74 g/m*3 8.1 C 0 km/h
45 16-10-2010 08:52:01 8.1 C 7.74 g/m*3 8.1 C 0 km/h
46 16-10-2010 09:04:01 8.2 C 7.79 g/m*3 8.2 C 0 km/h
47 16-10-2010 09:16:02 8.2 C 7.79 g/m*3 8.2 C 0 km/h
48 16-10-2010 09:28:02 8.2 C 7.79 g/m*3 8.2 C 0 km/h
49 16-10-2010 09:40:01 8.2 C 7.79 g/m*3 8.2 C 0 km/h
50 16-10-2010 09:52:02 8.4 C 7.89 g/m*3 8.4 C 0 km/h
Sensor: Nr:Datum:Temp:Abs-Feuchte:Windchill:Wind:
Aussen-T/F 51 16-10-2010 10:04:02 8.5 C 7.94 g/m*3 8.5 C 0 km/h
52 16-10-2010 10:16:02 8.6 C 7.99 g/m*3 8.6 C 0 km/h
53 16-10-2010 10:28:02 8.8 C 8.18 g/m*3 8.8 C 0 km/h
54 16-10-2010 10:40:01 8.6 C 7.99 g/m*3 8.6 C 0 km/h
55 16-10-2010 10:52:02 8.7 C 8.04 g/m*3 8.7 C 0 km/h
56 16-10-2010 11:04:01 8.9 C 8.15 g/m*3 8.9 C 0 km/h
57 16-10-2010 11:16:01 8.8 C 8.09 g/m*3 8.8 C 0 km/h
58 16-10-2010 11:28:01 9 C 8.11 g/m*3 9 C 0 km/h
59 16-10-2010 11:40:01 9.1 C 8.16 g/m*3 9.1 C 0 km/h
60 16-10-2010 11:52:01 9 C 8.02 g/m*3 9 C 0 km/h
61 16-10-2010 12:04:02 9.3 C 8.18 g/m*3 9.3 C 0 km/h
62 16-10-2010 12:16:01 9.1 C 7.99 g/m*3 9.1 C 0 km/h
63 16-10-2010 12:28:01 9.1 C 7.9 g/m*3 9.1 C 0 km/h
64 16-10-2010 12:40:01 9.7 C 8.3 g/m*3 9.7 C 0 km/h
65 16-10-2010 12:52:01 9.7 C 8.2 g/m*3 9.7 C 0 km/h
66 16-10-2010 13:04:02 9.6 C 8.15 g/m*3 9.6 C 0 km/h
67 16-10-2010 13:16:01 9.9 C 8.31 g/m*3 9.9 C 0 km/h
68 16-10-2010 13:28:01 9.8 C 8.26 g/m*3 9.8 C 0 km/h
69 16-10-2010 13:40:02 9.6 C 8.06 g/m*3 9.6 C 0 km/h
70 16-10-2010 13:52:02 9.7 C 8.02 g/m*3 9.7 C 0 km/h
71 16-10-2010 14:04:02 9.9 C 8.12 g/m*3 9.9 C 0 km/h
72 16-10-2010 14:16:01 10 C 7.89 g/m*3 10 C 0 km/h
73 16-10-2010 14:28:01 10.1 C 7.94 g/m*3 10.1 C 0 km/h
74 16-10-2010 14:40:02 10 C 7.8 g/m*3 10 C 0 km/h
75 16-10-2010 14:52:01 9.8 C 7.7 g/m*3 9.8 C 0 km/h
Sensor: Nr:Datum:Temp:Abs-Feuchte:Windchill:Wind:
Aussen-T/F 76 16-10-2010 15:04:02 9.8 C 7.79 g/m*3 9.8 C 0 km/h
77 16-10-2010 15:16:02 9.9 C 7.84 g/m*3 9.9 C 0 km/h
78 16-10-2010 15:28:02 10.3 C 7.95 g/m*3 10.3 C 0 km/h
79 16-10-2010 15:40:02 10.1 C 7.66 g/m*3 10.1 C 0 km/h
80 16-10-2010 15:52:01 10.3 C 7.85 g/m*3 10.3 C 0 km/h
81 16-10-2010 16:04:02 10.2 C 7.8 g/m*3 10.2 C 0 km/h
82 16-10-2010 16:16:02 10.2 C 7.8 g/m*3 10.2 C 0 km/h
83 16-10-2010 16:28:02 9.9 C 7.84 g/m*3 9.9 C 0 km/h
84 16-10-2010 16:40:01 9.6 C 7.79 g/m*3 9.6 C 0 km/h
85 16-10-2010 16:52:02 9.6 C 7.97 g/m*3 9.6 C 0 km/h
86 16-10-2010 17:04:01 9.6 C 8.06 g/m*3 9.6 C 0 km/h
87 16-10-2010 17:16:02 9.6 C 8.15 g/m*3 9.6 C 0 km/h
88 16-10-2010 17:28:02 9.2 C 7.86 g/m*3 9.2 C 0 km/h
89 16-10-2010 17:40:01 9.3 C 7.82 g/m*3 9.3 C 0 km/h
90 16-10-2010 17:52:02 9.1 C 7.63 g/m*3 9.1 C 0 km/h
91 16-10-2010 18:04:02 8.9 C 7.36 g/m*3 8.9 C 0 km/h
92 16-10-2010 18:16:02 8.7 C 7.18 g/m*3 8.7 C 0 km/h
93 16-10-2010 18:28:02 8.4 C 6.96 g/m*3 8.4 C 0 km/h
94 16-10-2010 18:40:03 8.1 C 6.74 g/m*3 8.1 C 0 km/h
95 16-10-2010 18:52:02 7.8 C 6.69 g/m*3 7.8 C 0 km/h
96 16-10-2010 19:04:01 7.5 C 6.56 g/m*3 7.5 C 0 km/h
97 16-10-2010 19:16:02 7.2 C 6.59 g/m*3 7.2 C 0 km/h
98 16-10-2010 19:28:02 7 C 6.59 g/m*3 7 C 0 km/h
99 16-10-2010 19:40:01 6.7 C 6.61 g/m*3 6.7 C 0 km/h
100 16-10-2010 19:52:02 6.4 C 6.41 g/m*3 6.4 C 0 km/h
Sensor: Nr:Datum:Temp:Abs-Feuchte:Windchill:Wind:
Aussen-T/F 101 16-10-2010 20:04:01 6.5 C 6.45 g/m*3 6.5 C 0 km/h
102 16-10-2010 20:16:01 6.5 C 6.3 g/m*3 6.5 C 0 km/h
103 16-10-2010 20:28:01 6.6 C 6.27 g/m*3 6.6 C 0 km/h
104 16-10-2010 20:40:02 6.6 C 6.27 g/m*3 6.6 C 0 km/h
105 16-10-2010 20:52:02 6.6 C 6.27 g/m*3 6.6 C 0 km/h
106 16-10-2010 21:04:02 6.5 C 6.22 g/m*3 6.5 C 0 km/h
107 16-10-2010 21:16:01 6.3 C 6.14 g/m*3 6.3 C 0 km/h
108 16-10-2010 21:28:01 6.3 C 6.22 g/m*3 6.3 C 0 km/h
109 16-10-2010 21:40:02 6.2 C 6.25 g/m*3 6.2 C 0 km/h
110 16-10-2010 21:52:02 6.1 C 6.21 g/m*3 6.1 C 0 km/h
111 16-10-2010 22:04:02 6 C 6.24 g/m*3 6 C 0 km/h
112 16-10-2010 22:16:02 5.9 C 6.35 g/m*3 5.9 C 0 km/h
113 16-10-2010 22:28:02 5.8 C 6.38 g/m*3 5.8 C 0 km/h
114 16-10-2010 22:40:02 5.9 C 6.42 g/m*3 5.9 C 0 km/h
115 16-10-2010 22:52:02 5.9 C 6.49 g/m*3 5.9 C 0 km/h
116 16-10-2010 23:04:02 5.9 C 6.49 g/m*3 5.9 C 0 km/h
117 16-10-2010 23:16:03 5.9 C 6.56 g/m*3 5.9 C 0 km/h
118 16-10-2010 23:28:03 6 C 6.53 g/m*3 6 C 0 km/h
119 16-10-2010 23:41:04 6 C 6.6 g/m*3 6 C 0 km/h
120 16-10-2010 23:53:04 6 C 6.6 g/m*3 6 C 0 km/h

Legende:
   Min
   Max


Maximal/Minimal-Werte vom 16.10.2010 - 16.10.2010

Sensor Min Max Avg
Temp
(Aussen-T/F)
5.8 °C
16-10-2010  22:28:02
10.3 °C
16-10-2010  15:28:02
8.38 °C
Abs-Feuchte
(Aussen-T/F)
6.14 g/m*3
16-10-2010  21:16:01
8.31 g/m*3
16-10-2010  13:16:01
7.57 g/m*3
Windchill
(Aussen-T/F)
5.8 C
16-10-2010  22:28:02
10.3 C
16-10-2010  15:28:02
8.31 C

Die Daten stammen von einer Davis Vantage Pro 2 Wetter-Station und werden unter Linux mit der Software wview2wettercgi und aufbereitet. Alle Angaben erfolgen ohne Gewähr für ihre Vollständigkeit oder Richtigkeit.
Kontakt: Rainer Krienke krienke@uni-koblenz.de . Meine Webseiten an der Uni Koblenz oder privat.
Version: $Revision: 0.78 $